This is the latest recevied weather packets stored in our database for station/object W8LMG. If no packets are shown the sender has not sent any weather packets the latest 10 day(s).
| Time | Temp. | Humidity | Pressure | Rain* | Wind** | Luminosity | Snow |
|---|---|---|---|---|---|---|---|
| 1777928923 | 15.56° C | 74% | 1013 hPa | 0 mm | - | 56 W/m² | - |
| 1777928620 | 15.56° C | 71% | 1012.9 hPa | 0 mm | - | 52 W/m² | - |
| 1777928317 | 16.67° C | 67% | 1013.5 hPa | 0 mm | - | 29 W/m² | - |
| 1777928015 | 18.33° C | 60% | 1013.7 hPa | 0 mm | - | 34 W/m² | - |
| 1777927713 | 20.56° C | 46% | 1013.2 hPa | 0 mm | - | 16 W/m² | - |
| 1777927411 | 20.56° C | 43% | 1012.5 hPa | 0 mm | - | 13 W/m² | - |
| 1777927110 | 20.56° C | 43% | 1012.4 hPa | 0 mm | - | 34 W/m² | - |
| 1777926807 | 20.56° C | 43% | 1012.1 hPa | 0 mm | - | 68 W/m² | - |
| 1777926502 | 21.11° C | 42% | 1012.2 hPa | 0 mm | - | 60 W/m² | - |
| 1777926200 | 21.11° C | 42% | 1012.2 hPa | 0 mm | - | 112 W/m² | - |
| 1777925896 | 22.22° C | 41% | 1012.1 hPa | 0 mm | - | 125 W/m² | - |
| 1777925594 | 22.78° C | 39% | 1011.9 hPa | 0 mm | - | 559 W/m² | - |
| 1777925291 | 23.33° C | 41% | 1012.2 hPa | 0 mm | - | 606 W/m² | - |
| 1777924987 | 22.78° C | 42% | 1012 hPa | 0 mm | - | 393 W/m² | - |
| 1777924683 | 21.67° C | 40% | 1012.1 hPa | 0 mm | - | 613 W/m² | - |
| 1777924379 | 21.67° C | 42% | 1012.2 hPa | 0 mm | - | 230 W/m² | - |
| 1777924076 | 20.56° C | 41% | 1012.2 hPa | 0 mm | - | 689 W/m² | - |
| 1777923773 | 20.56° C | 43% | 1012.2 hPa | 0 mm | - | 125 W/m² | - |
| 1777923469 | 20.56° C | 43% | 1012.4 hPa | 0 mm | - | 172 W/m² | - |
| 1777923167 | 21.11° C | 42% | 1012.3 hPa | 0 mm | - | 141 W/m² | - |
| 1777922865 | 21.11° C | 43% | 1012.2 hPa | 0 mm | - | 204 W/m² | - |
| 1777922563 | 22.22° C | 41% | 1012.3 hPa | 0 mm | - | 192 W/m² | - |
| 1777922261 | 22.22° C | 42% | 1012.5 hPa | 0 mm | - | 764 W/m² | - |
| 1777921958 | 21.67° C | 42% | 1012.4 hPa | 0 mm | - | 722 W/m² | - |
| 1777921653 | 21.67° C | 45% | 1012.3 hPa | 0 mm | - | 669 W/m² | - |
* Rain latest hour (hover to see other rain measurements)
** Current wind speed in m/s (hover to see current wind gust speed)